Time;durP1;ratioP1;P1;durP2;ratioP2;P2;SDS_P1;SDS_P2;PMS_P1;PMS_P2;Temp;Humidity;BMP_temperature;BMP_pressure;BME280_temperature;BME280_humidity;BME280_pressure;Samples;Min_cycle;Max_cycle;Signal;HPM_P1;HPM_P2
2022/07/30 00:32:52;;;;;;;1999.90;999.90;;;;;;;;;;5552007;23;20627;-72
2022/07/30 00:35:37;;;;;;;1999.90;999.90;;;;;;;;;;5000550;28;20242;-71
2022/07/30 00:38:22;;;;;;;1999.90;999.90;;;;;;;;;;5005946;28;20572;-71
2022/07/30 00:41:07;;;;;;;1999.90;999.90;;;;;;;;;;4993328;28;20234;-71
2022/07/30 00:43:52;;;;;;;1999.90;999.90;;;;;;;;;;4991990;28;20314;-71
2022/07/30 00:46:39;;;;;;;1999.90;999.90;;;;;;;;;;4992587;28;20627;-71
2022/07/30 00:49:25;;;;;;;1999.90;999.90;;;;;;;;;;4992439;28;20319;-71
2022/07/30 00:52:10;;;;;;;1999.90;999.90;;;;;;;;;;4993457;28;20231;-72
2022/07/30 00:54:55;;;;;;;1999.90;999.90;;;;;;;;;;4993443;28;20697;-72
2022/07/30 00:57:40;;;;;;;1999.90;999.90;;;;;;;;;;4990973;28;20607;-71
2022/07/30 01:00:26;;;;;;;1999.90;999.90;;;;;;;;;;4993447;28;20211;-71
2022/07/30 01:03:11;;;;;;;1999.90;999.90;;;;;;;;;;4993656;28;20223;-72
2022/07/30 01:05:57;;;;;;;1999.90;999.90;;;;;;;;;;5001177;28;20283;-71
2022/07/30 01:08:43;;;;;;;1999.90;999.90;;;;;;;;;;4997620;28;20414;-71
2022/07/30 01:11:31;;;;;;;1999.90;999.90;;;;;;;;;;5004293;28;20227;-72
2022/07/30 01:14:16;;;;;;;1999.90;999.90;;;;;;;;;;4981522;28;20701;-70
2022/07/30 01:17:02;;;;;;;1999.90;999.90;;;;;;;;;;4991835;28;20215;-72
2022/07/30 01:19:48;;;;;;;1999.90;999.90;;;;;;;;;;4991468;28;20214;-71
2022/07/30 01:22:40;;;;;;;1999.90;999.90;;;;;;;;;;4991942;28;20614;-72
2022/07/30 01:25:30;;;;;;;1999.90;999.90;;;;;;;;;;4992255;28;20598;-71
2022/07/30 01:28:18;;;;;;;1999.90;999.90;;;;;;;;;;4990610;28;20557;-70
2022/07/30 01:31:03;;;;;;;1999.90;999.90;;;;;;;;;;4991719;28;20207;-72
2022/07/30 01:33:49;;;;;;;1999.90;999.90;;;;;;;;;;4991499;28;20282;-72
2022/07/30 01:36:35;;;;;;;1999.90;999.90;;;;;;;;;;4991572;28;20808;-72
2022/07/30 01:39:20;;;;;;;1999.90;999.90;;;;;;;;;;4991377;28;20211;-71
2022/07/30 01:42:07;;;;;;;1999.90;999.90;;;;;;;;;;4991738;28;20225;-71
2022/07/30 01:44:54;;;;;;;1999.90;999.90;;;;;;;;;;4989929;28;20254;-72
2022/07/30 01:47:40;;;;;;;1999.90;999.90;;;;;;;;;;4991205;28;20360;-72
2022/07/30 01:50:26;;;;;;;1999.90;999.90;;;;;;;;;;4991809;28;20219;-72
2022/07/30 01:53:13;;;;;;;1999.90;999.90;;;;;;;;;;4991168;28;20230;-72
2022/07/30 01:55:59;;;;;;;1999.90;999.90;;;;;;;;;;4990687;28;20222;-69
2022/07/30 01:58:46;;;;;;;1999.90;999.90;;;;;;;;;;4991524;28;20207;-71
2022/07/30 02:01:33;;;;;;;1999.90;999.90;;;;;;;;;;4992748;28;20298;-72
2022/07/30 02:04:17;;;;;;;1999.90;999.90;;;;;;;;;;4992572;28;20757;-73
2022/07/30 02:07:04;;;;;;;1999.90;999.90;;;;;;;;;;4991309;28;20215;-74
2022/07/30 02:09:52;;;;;;;1999.90;999.90;;;;;;;;;;4991049;28;20218;-74
2022/07/30 02:12:39;;;;;;;1999.90;999.90;;;;;;;;;;4990964;28;20227;-74
2022/07/30 02:15:28;;;;;;;1999.90;999.90;;;;;;;;;;4989200;28;20227;-72
2022/07/30 02:18:16;;;;;;;1999.90;999.90;;;;;;;;;;4984746;28;20351;-72
2022/07/30 02:21:03;;;;;;;1999.90;999.90;;;;;;;;;;4981987;28;20215;-74
2022/07/30 02:23:50;;;;;;;1999.90;999.90;;;;;;;;;;4988004;28;20227;-74
2022/07/30 02:26:35;;;;;;;1999.90;999.90;;;;;;;;;;4989845;28;20242;-74
2022/07/30 02:29:22;;;;;;;1999.90;999.90;;;;;;;;;;4992147;28;20207;-72
2022/07/30 02:32:10;;;;;;;1999.90;999.90;;;;;;;;;;4992118;28;20281;-74
2022/07/30 02:34:58;;;;;;;1999.90;999.90;;;;;;;;;;4992504;28;20203;-74
2022/07/30 02:37:45;;;;;;;1999.90;999.90;;;;;;;;;;4992260;28;20207;-74
2022/07/30 02:40:29;;;;;;;1999.90;999.90;;;;;;;;;;4992116;28;20339;-74
2022/07/30 02:43:15;;;;;;;1999.90;999.90;;;;;;;;;;4992263;28;20741;-73
2022/07/30 02:46:01;;;;;;;1999.90;999.90;;;;;;;;;;4992365;28;20598;-75
2022/07/30 02:48:47;;;;;;;1999.90;999.90;;;;;;;;;;4991768;28;20222;-74
2022/07/30 02:51:34;;;;;;;1999.90;999.90;;;;;;;;;;4992121;28;20343;-74
2022/07/30 02:54:19;;;;;;;1999.90;999.90;;;;;;;;;;4992303;28;20210;-74
2022/07/30 02:57:06;;;;;;;1999.90;999.90;;;;;;;;;;4992219;28;20207;-74
2022/07/30 02:59:52;;;;;;;1999.90;999.90;;;;;;;;;;4991783;28;20278;-74
2022/07/30 03:02:38;;;;;;;1999.90;999.90;;;;;;;;;;4992261;28;20231;-74
2022/07/30 03:05:24;;;;;;;1999.90;999.90;;;;;;;;;;4992065;28;20204;-73
2022/07/30 03:08:11;;;;;;;1999.90;999.90;;;;;;;;;;4994339;28;20230;-74
2022/07/30 03:10:57;;;;;;;1999.90;999.90;;;;;;;;;;4994724;28;20413;-74
2022/07/30 03:13:42;;;;;;;1999.90;999.90;;;;;;;;;;4995248;28;20227;-74
2022/07/30 03:16:28;;;;;;;1999.90;999.90;;;;;;;;;;4995296;28;20207;-74
2022/07/30 03:19:15;;;;;;;1999.90;999.90;;;;;;;;;;4995204;28;20270;-74
2022/07/30 03:22:01;;;;;;;1999.90;999.90;;;;;;;;;;4995459;28;20223;-74
2022/07/30 03:24:48;;;;;;;1999.90;999.90;;;;;;;;;;4995412;28;20203;-74
2022/07/30 03:27:34;;;;;;;1999.90;999.90;;;;;;;;;;4993256;28;20211;-74
2022/07/30 03:30:19;;;;;;;1999.90;999.90;;;;;;;;;;4988797;28;20263;-74
2022/07/30 03:33:05;;;;;;;1999.90;999.90;;;;;;;;;;4994184;28;20230;-74
2022/07/30 03:35:51;;;;;;;1999.90;999.90;;;;;;;;;;4994654;28;20206;-73
2022/07/30 03:38:37;;;;;;;1999.90;999.90;;;;;;;;;;4994648;28;20227;-74
2022/07/30 03:41:23;;;;;;;1999.90;999.90;;;;;;;;;;4994890;28;20211;-71
2022/07/30 03:44:09;;;;;;;1999.90;999.90;;;;;;;;;;4993900;28;20414;-73
2022/07/30 03:46:54;;;;;;;1999.90;999.90;;;;;;;;;;4994314;28;20219;-72
2022/07/30 03:49:40;;;;;;;1999.90;999.90;;;;;;;;;;4994492;28;20679;-74
2022/07/30 03:52:25;;;;;;;1999.90;999.90;;;;;;;;;;4994748;28;20243;-74
2022/07/30 03:55:11;;;;;;;1999.90;999.90;;;;;;;;;;4994853;28;20214;-73
2022/07/30 03:57:58;;;;;;;1999.90;999.90;;;;;;;;;;4994525;28;20199;-73
2022/07/30 04:00:46;;;;;;;1999.90;999.90;;;;;;;;;;4991877;28;20212;-74
2022/07/30 04:03:32;;;;;;;1999.90;999.90;;;;;;;;;;4984573;28;20480;-74
2022/07/30 04:06:17;;;;;;;1999.90;999.90;;;;;;;;;;4974983;28;20582;-74
2022/07/30 04:09:02;;;;;;;1999.90;999.90;;;;;;;;;;4974904;28;20204;-73
2022/07/30 04:11:47;;;;;;;1999.90;999.90;;;;;;;;;;4984100;28;20286;-73
2022/07/30 04:14:38;;;;;;;1999.90;999.90;;;;;;;;;;4985828;28;20299;-74
2022/07/30 04:17:25;;;;;;;1999.90;999.90;;;;;;;;;;4983296;28;20207;-73
2022/07/30 04:20:12;;;;;;;1999.90;999.90;;;;;;;;;;4982029;28;20223;-74
2022/07/30 04:22:58;;;;;;;1999.90;999.90;;;;;;;;;;4974628;28;20689;-74
2022/07/30 04:25:44;;;;;;;1999.90;999.90;;;;;;;;;;4974886;28;20211;-73
2022/07/30 04:28:29;;;;;;;1999.90;999.90;;;;;;;;;;4990954;28;20222;-74
2022/07/30 04:31:16;;;;;;;1999.90;999.90;;;;;;;;;;4994161;28;20279;-73
2022/07/30 04:34:01;;;;;;;1999.90;999.90;;;;;;;;;;4993758;28;20231;-73
2022/07/30 04:36:47;;;;;;;1999.90;999.90;;;;;;;;;;4994176;28;20584;-73
2022/07/30 04:39:31;;;;;;;1999.90;999.90;;;;;;;;;;4993521;28;20708;-73
2022/07/30 04:42:16;;;;;;;1999.90;999.90;;;;;;;;;;4992617;28;20231;-73
2022/07/30 04:45:01;;;;;;;1999.90;999.90;;;;;;;;;;4987041;28;20237;-73
2022/07/30 04:47:47;;;;;;;1999.90;999.90;;;;;;;;;;4993694;28;20210;-73
2022/07/30 04:50:33;;;;;;;1999.90;999.90;;;;;;;;;;4993843;28;20251;-74
2022/07/30 04:53:19;;;;;;;1999.90;999.90;;;;;;;;;;4993240;28;20440;-71
2022/07/30 04:56:05;;;;;;;1999.90;999.90;;;;;;;;;;4993606;28;20251;-74
2022/07/30 04:58:51;;;;;;;1999.90;999.90;;;;;;;;;;4984969;28;20445;-73
2022/07/30 05:01:37;;;;;;;1999.90;999.90;;;;;;;;;;4991229;28;20366;-74
2022/07/30 05:04:23;;;;;;;1999.90;999.90;;;;;;;;;;4984057;28;20293;-73
2022/07/30 05:07:13;;;;;;;1999.90;999.90;;;;;;;;;;4985952;28;20814;-74
2022/07/30 05:09:58;;;;;;;1999.90;999.90;;;;;;;;;;4991975;28;20705;-73
2022/07/30 05:12:43;;;;;;;1999.90;999.90;;;;;;;;;;4992306;28;20246;-74
2022/07/30 05:15:29;;;;;;;1999.90;999.90;;;;;;;;;;4993375;28;20726;-74
2022/07/30 05:18:13;;;;;;;1999.90;999.90;;;;;;;;;;4993026;28;20577;-73
2022/07/30 05:21:00;;;;;;;1999.90;999.90;;;;;;;;;;4993508;28;20204;-74
2022/07/30 05:23:45;;;;;;;1999.90;999.90;;;;;;;;;;4987978;28;20598;-74
2022/07/30 05:26:30;;;;;;;1999.90;999.90;;;;;;;;;;4993092;28;20258;-73
2022/07/30 05:29:15;;;;;;;1999.90;999.90;;;;;;;;;;4992565;28;20208;-74
2022/07/30 05:31:59;;;;;;;1999.90;999.90;;;;;;;;;;4992856;28;20235;-73
2022/07/30 05:34:45;;;;;;;1999.90;999.90;;;;;;;;;;4992819;28;20269;-73
2022/07/30 05:37:32;;;;;;;1999.90;999.90;;;;;;;;;;4993015;28;20692;-74
2022/07/30 05:40:17;;;;;;;1999.90;999.90;;;;;;;;;;4991252;28;20215;-74
2022/07/30 05:43:02;;;;;;;1999.90;999.90;;;;;;;;;;4991566;28;20310;-74
2022/07/30 05:45:47;;;;;;;1999.90;999.90;;;;;;;;;;4988755;28;20418;-74
2022/07/30 05:48:34;;;;;;;1999.90;999.90;;;;;;;;;;4973167;28;20700;-73
2022/07/30 05:51:20;;;;;;;1999.90;999.90;;;;;;;;;;4973557;28;20191;-72
2022/07/30 05:54:07;;;;;;;1999.90;999.90;;;;;;;;;;4973241;28;20250;-74
2022/07/30 05:56:52;;;;;;;1999.90;999.90;;;;;;;;;;4975357;28;20231;-73
2022/07/30 05:59:37;;;;;;;1999.90;999.90;;;;;;;;;;4972855;28;20686;-74
2022/07/30 06:02:22;;;;;;;1999.90;999.90;;;;;;;;;;4991923;28;20231;-73
2022/07/30 06:05:07;;;;;;;1999.90;999.90;;;;;;;;;;4973214;28;20228;-74
2022/07/30 06:07:52;;;;;;;1999.90;999.90;;;;;;;;;;4983527;28;20335;-73
2022/07/30 06:10:39;;;;;;;1999.90;999.90;;;;;;;;;;4990999;28;20267;-70
2022/07/30 06:13:23;;;;;;;1999.90;999.90;;;;;;;;;;4992034;28;20227;-75
2022/07/30 06:16:08;;;;;;;1999.90;999.90;;;;;;;;;;4991621;28;20706;-74
2022/07/30 06:18:53;;;;;;;1999.90;999.90;;;;;;;;;;4982579;28;20216;-74
2022/07/30 06:21:38;;;;;;;1999.90;999.90;;;;;;;;;;4984555;28;20287;-74
2022/07/30 06:24:23;;;;;;;1999.90;999.90;;;;;;;;;;4981746;28;20205;-74
2022/07/30 06:27:10;;;;;;;1999.90;999.90;;;;;;;;;;4987992;28;20215;-74
2022/07/30 06:29:55;;;;;;;1999.90;999.90;;;;;;;;;;4989789;28;20211;-73
2022/07/30 06:32:42;;;;;;;1999.90;999.90;;;;;;;;;;4990790;28;20226;-73
2022/07/30 06:35:27;;;;;;;1999.90;999.90;;;;;;;;;;4991191;28;20223;-73
2022/07/30 06:38:12;;;;;;;1999.90;999.90;;;;;;;;;;4990215;28;20916;-74
2022/07/30 06:40:58;;;;;;;1999.90;999.90;;;;;;;;;;4989621;28;20279;-73
2022/07/30 06:43:45;;;;;;;1999.90;999.90;;;;;;;;;;4994545;28;20223;-74
2022/07/30 06:46:30;;;;;;;1999.90;999.90;;;;;;;;;;4994991;28;20207;-73
2022/07/30 06:49:15;;;;;;;1999.90;999.90;;;;;;;;;;4994770;28;20215;-73
2022/07/30 06:52:00;;;;;;;1999.90;999.90;;;;;;;;;;4994782;28;20238;-74
2022/07/30 06:54:45;;;;;;;1999.90;999.90;;;;;;;;;;4994973;28;20237;-73
2022/07/30 06:57:30;;;;;;;1999.90;999.90;;;;;;;;;;4976952;28;20687;-74
2022/07/30 07:00:16;;;;;;;1999.90;999.90;;;;;;;;;;4985728;28;20716;-73
2022/07/30 07:03:01;;;;;;;1999.90;999.90;;;;;;;;;;4980853;28;20239;-75
2022/07/30 07:05:46;;;;;;;1999.90;999.90;;;;;;;;;;4976711;28;20701;-73
2022/07/30 07:08:31;;;;;;;1999.90;999.90;;;;;;;;;;4978025;28;20582;-73
2022/07/30 07:11:16;;;;;;;1999.90;999.90;;;;;;;;;;4983765;28;20427;-73
2022/07/30 07:14:01;;;;;;;1999.90;999.90;;;;;;;;;;4986373;28;20985;-72
2022/07/30 07:16:49;;;;;;;1999.90;999.90;;;;;;;;;;4977850;28;20211;-75
2022/07/30 07:19:34;;;;;;;1999.90;999.90;;;;;;;;;;4976101;28;20236;-72
2022/07/30 07:22:19;;;;;;;1999.90;999.90;;;;;;;;;;4977072;28;20309;-74
2022/07/30 07:25:04;;;;;;;1999.90;999.90;;;;;;;;;;4980699;28;20341;-74
2022/07/30 07:27:49;;;;;;;1999.90;999.90;;;;;;;;;;4983069;28;20798;-73
2022/07/30 07:30:34;;;;;;;1999.90;999.90;;;;;;;;;;4976951;28;20395;-72
2022/07/30 07:33:21;;;;;;;1999.90;999.90;;;;;;;;;;4978905;28;20367;-73
2022/07/30 07:36:06;;;;;;;1999.90;999.90;;;;;;;;;;4980904;28;20331;-73
2022/07/30 07:38:51;;;;;;;1999.90;999.90;;;;;;;;;;4981581;28;20215;-71
2022/07/30 07:41:36;;;;;;;1999.90;999.90;;;;;;;;;;4974795;28;20211;-72
2022/07/30 07:44:21;;;;;;;1999.90;999.90;;;;;;;;;;4980065;28;20206;-73
2022/07/30 07:47:06;;;;;;;1999.90;999.90;;;;;;;;;;4984844;28;20298;-71
2022/07/30 07:49:55;;;;;;;1999.90;999.90;;;;;;;;;;4978882;28;20227;-72
2022/07/30 07:52:41;;;;;;;1999.90;999.90;;;;;;;;;;4983118;28;20236;-71
2022/07/30 07:55:25;;;;;;;1999.90;999.90;;;;;;;;;;4976961;28;20203;-72
2022/07/30 07:58:12;;;;;;;1999.90;999.90;;;;;;;;;;4990830;28;20290;-69
2022/07/30 08:00:57;;;;;;;1999.90;999.90;;;;;;;;;;4983984;28;20306;-71
2022/07/30 08:03:42;;;;;;;1999.90;999.90;;;;;;;;;;4980275;28;20236;-68
2022/07/30 08:06:28;;;;;;;1999.90;999.90;;;;;;;;;;4987236;28;20211;-68
2022/07/30 08:09:13;;;;;;;1999.90;999.90;;;;;;;;;;4983913;28;20208;-71
2022/07/30 08:11:59;;;;;;;1999.90;999.90;;;;;;;;;;4978545;28;20226;-71
2022/07/30 08:14:43;;;;;;;1999.90;999.90;;;;;;;;;;4973612;28;20224;-71
2022/07/30 08:17:28;;;;;;;1999.90;999.90;;;;;;;;;;4979090;28;20332;-71
2022/07/30 08:20:15;;;;;;;1999.90;999.90;;;;;;;;;;4976362;28;20211;-70
2022/07/30 08:23:01;;;;;;;1999.90;999.90;;;;;;;;;;4973932;28;20910;-72
2022/07/30 08:25:46;;;;;;;1999.90;999.90;;;;;;;;;;4973454;28;20513;-71
2022/07/30 08:28:31;;;;;;;1999.90;999.90;;;;;;;;;;4973830;28;20215;-70
2022/07/30 08:31:16;;;;;;;1999.90;999.90;;;;;;;;;;4982749;28;20211;-70
2022/07/30 08:34:01;;;;;;;1999.90;999.90;;;;;;;;;;4981018;28;20248;-69
2022/07/30 08:36:46;;;;;;;1999.90;999.90;;;;;;;;;;4984519;28;20215;-70
2022/07/30 08:39:32;;;;;;;1999.90;999.90;;;;;;;;;;4979814;28;20224;-70
2022/07/30 08:42:17;;;;;;;1999.90;999.90;;;;;;;;;;4979273;28;20595;-70
2022/07/30 08:45:02;;;;;;;1999.90;999.90;;;;;;;;;;4980869;28;20235;-71
2022/07/30 08:47:48;;;;;;;1999.90;999.90;;;;;;;;;;4983140;28;20211;-69
2022/07/30 08:50:34;;;;;;;1999.90;999.90;;;;;;;;;;4983575;28;20210;-71
2022/07/30 08:53:19;;;;;;;1999.90;999.90;;;;;;;;;;4981870;28;20251;-70
2022/07/30 08:56:06;;;;;;;1999.90;999.90;;;;;;;;;;4985029;28;20446;-69
2022/07/30 08:58:51;;;;;;;1999.90;999.90;;;;;;;;;;4983569;28;20215;-70
2022/07/30 09:01:36;;;;;;;1999.90;999.90;;;;;;;;;;4983751;28;20255;-70
2022/07/30 09:04:21;;;;;;;1999.90;999.90;;;;;;;;;;4981562;28;20213;-70
2022/07/30 09:07:06;;;;;;;1999.90;999.90;;;;;;;;;;4984511;28;20204;-70
2022/07/30 09:09:51;;;;;;;1999.90;999.90;;;;;;;;;;4973779;28;20207;-69
2022/07/30 09:12:38;;;;;;;1999.90;999.90;;;;;;;;;;4980755;28;20730;-70
2022/07/30 09:15:24;;;;;;;1999.90;999.90;;;;;;;;;;4983020;28;20590;-70
2022/07/30 09:18:09;;;;;;;1999.90;999.90;;;;;;;;;;4984029;28;20212;-70
2022/07/30 09:20:54;;;;;;;1999.90;999.90;;;;;;;;;;4982217;28;20210;-71
2022/07/30 09:23:40;;;;;;;1999.90;999.90;;;;;;;;;;4980354;28;20235;-70
2022/07/30 09:26:25;;;;;;;1999.90;999.90;;;;;;;;;;4980841;28;20322;-70
2022/07/30 09:29:19;;;;;;;1999.90;999.90;;;;;;;;;;4981576;28;20212;-70
2022/07/30 09:32:05;;;;;;;1999.90;999.90;;;;;;;;;;4981726;28;20710;-70
2022/07/30 09:34:50;;;;;;;1999.90;999.90;;;;;;;;;;4978465;28;20736;-70
2022/07/30 09:37:36;;;;;;;1999.90;999.90;;;;;;;;;;4981356;28;20227;-70
2022/07/30 09:40:21;;;;;;;1999.90;999.90;;;;;;;;;;4983864;28;20214;-70
2022/07/30 09:43:07;;;;;;;1999.90;999.90;;;;;;;;;;4983182;28;20306;-71
2022/07/30 09:45:56;;;;;;;1999.90;999.90;;;;;;;;;;4982790;28;20341;-70
2022/07/30 09:48:41;;;;;;;1999.90;999.90;;;;;;;;;;4981792;28;20535;-70
2022/07/30 09:51:37;;;;;;;1999.90;999.90;;;;;;;;;;4972581;28;20214;-71
2022/07/30 09:54:22;;;;;;;1999.90;999.90;;;;;;;;;;4984635;28;20701;-70
2022/07/30 09:57:07;;;;;;;1999.90;999.90;;;;;;;;;;4976433;28;20210;-71
2022/07/30 09:59:52;;;;;;;1999.90;999.90;;;;;;;;;;4979505;28;20720;-70
2022/07/30 10:02:38;;;;;;;1999.90;999.90;;;;;;;;;;4979646;28;20282;-70
2022/07/30 10:05:24;;;;;;;1999.90;999.90;;;;;;;;;;4974560;28;20092;-70
2022/07/30 10:08:09;;;;;;;1999.90;999.90;;;;;;;;;;4976714;28;20571;-70
2022/07/30 10:10:54;;;;;;;1999.90;999.90;;;;;;;;;;4973993;28;20222;-70
2022/07/30 10:13:40;;;;;;;1999.90;999.90;;;;;;;;;;4982557;28;20238;-69
2022/07/30 10:16:25;;;;;;;1999.90;999.90;;;;;;;;;;4985278;28;20223;-70
2022/07/30 10:19:13;;;;;;;1999.90;999.90;;;;;;;;;;4985430;28;20250;-69
2022/07/30 10:21:59;;;;;;;1999.90;999.90;;;;;;;;;;4987585;28;20349;-71
2022/07/30 10:24:44;;;;;;;1999.90;999.90;;;;;;;;;;4984970;28;20207;-70
2022/07/30 10:27:29;;;;;;;1999.90;999.90;;;;;;;;;;4987031;28;20219;-70
2022/07/30 10:30:15;;;;;;;1999.90;999.90;;;;;;;;;;4980919;28;20215;-70
2022/07/30 10:33:00;;;;;;;1999.90;999.90;;;;;;;;;;4984815;28;20254;-70
2022/07/30 10:35:47;;;;;;;1999.90;999.90;;;;;;;;;;4982900;28;20230;-71
2022/07/30 10:38:34;;;;;;;1999.90;999.90;;;;;;;;;;4979432;28;20215;-71
2022/07/30 10:41:28;;;;;;;1999.90;999.90;;;;;;;;;;4990360;28;20907;-71
2022/07/30 10:44:25;;;;;;;1999.90;999.90;;;;;;;;;;4979876;28;20274;-70
2022/07/30 10:47:12;;;;;;;1999.90;999.90;;;;;;;;;;4987029;28;20211;-71
2022/07/30 10:50:08;;;;;;;1999.90;999.90;;;;;;;;;;4981140;28;20207;-70
2022/07/30 10:52:55;;;;;;;1999.90;999.90;;;;;;;;;;4985493;28;20227;-71
2022/07/30 10:55:40;;;;;;;1999.90;999.90;;;;;;;;;;4981736;28;20322;-71
2022/07/30 10:58:25;;;;;;;1999.90;999.90;;;;;;;;;;4975651;28;20890;-72
2022/07/30 11:01:10;;;;;;;1999.90;999.90;;;;;;;;;;4977734;28;20206;-71
2022/07/30 11:04:10;;;;;;;1999.90;999.90;;;;;;;;;;4987431;28;21021;-71
2022/07/30 11:07:14;;;;;;;1999.90;999.90;;;;;;;;;;4988043;28;20214;-71
2022/07/30 11:10:01;;;;;;;1999.90;999.90;;;;;;;;;;4980368;28;20571;-71
2022/07/30 11:12:52;;;;;;;1999.90;999.90;;;;;;;;;;4985473;28;20302;-72
2022/07/30 11:15:53;;;;;;;1999.90;999.90;;;;;;;;;;4976776;28;20275;-73
2022/07/30 11:19:02;;;;;;;1999.90;999.90;;;;;;;;;;4984983;28;20214;-71
2022/07/30 11:22:07;;;;;;;1999.90;999.90;;;;;;;;;;4979289;28;20690;-70
2022/07/30 11:24:52;;;;;;;1999.90;999.90;;;;;;;;;;4982383;28;20306;-71
2022/07/30 11:27:39;;;;;;;1999.90;999.90;;;;;;;;;;4984152;28;20580;-70
2022/07/30 11:30:32;;;;;;;1999.90;999.90;;;;;;;;;;4986443;28;20823;-71
2022/07/30 11:33:21;;;;;;;1999.90;999.90;;;;;;;;;;4984920;28;20426;-72
2022/07/30 11:36:08;;;;;;;1999.90;999.90;;;;;;;;;;4989164;28;20230;-72
2022/07/30 11:38:55;;;;;;;1999.90;999.90;;;;;;;;;;4985814;28;20279;-72
2022/07/30 11:41:40;;;;;;;1999.90;999.90;;;;;;;;;;4976371;28;20211;-72
2022/07/30 11:44:27;;;;;;;1999.90;999.90;;;;;;;;;;4989184;28;20567;-71
2022/07/30 11:47:12;;;;;;;1999.90;999.90;;;;;;;;;;4977230;28;20228;-71
2022/07/30 11:49:57;;;;;;;1999.90;999.90;;;;;;;;;;4986976;28;20282;-71
2022/07/30 11:52:42;;;;;;;1999.90;999.90;;;;;;;;;;4982716;28;20426;-72
2022/07/30 11:55:29;;;;;;;1999.90;999.90;;;;;;;;;;4983305;28;20231;-71
2022/07/30 11:58:24;;;;;;;1999.90;999.90;;;;;;;;;;4982984;28;20253;-72
2022/07/30 12:01:13;;;;;;;1999.90;999.90;;;;;;;;;;4988152;28;20207;-72
2022/07/30 12:04:02;;;;;;;1999.90;999.90;;;;;;;;;;4984522;28;20202;-71
2022/07/30 12:06:47;;;;;;;1999.90;999.90;;;;;;;;;;4982700;28;20870;-71
2022/07/30 12:09:32;;;;;;;1999.90;999.90;;;;;;;;;;4981897;28;20211;-70
2022/07/30 12:12:22;;;;;;;1999.90;999.90;;;;;;;;;;4983648;28;20231;-71
2022/07/30 12:15:07;;;;;;;1999.90;999.90;;;;;;;;;;4990286;28;20241;-71
2022/07/30 12:17:54;;;;;;;1999.90;999.90;;;;;;;;;;4977418;28;20274;-71
2022/07/30 12:20:39;;;;;;;1999.90;999.90;;;;;;;;;;4980103;28;20691;-71
2022/07/30 12:23:24;;;;;;;1999.90;999.90;;;;;;;;;;4987273;28;20227;-71
2022/07/30 12:26:19;;;;;;;1999.90;999.90;;;;;;;;;;4984851;28;20488;-70
2022/07/30 12:29:05;;;;;;;1999.90;999.90;;;;;;;;;;4983341;28;20419;-70
2022/07/30 12:31:52;;;;;;;1999.90;999.90;;;;;;;;;;4991044;28;20648;-71
2022/07/30 12:34:38;;;;;;;1999.90;999.90;;;;;;;;;;4992981;28;20231;-71
2022/07/30 12:37:24;;;;;;;1999.90;999.90;;;;;;;;;;4989458;28;20636;-70
2022/07/30 12:40:10;;;;;;;1999.90;999.90;;;;;;;;;;4986559;28;20237;-70
2022/07/30 12:42:56;;;;;;;1999.90;999.90;;;;;;;;;;4975143;28;20318;-70
2022/07/30 12:45:41;;;;;;;1999.90;999.90;;;;;;;;;;4974808;28;20442;-71
2022/07/30 12:48:26;;;;;;;1999.90;999.90;;;;;;;;;;4983385;28;20299;-70
2022/07/30 12:51:13;;;;;;;1999.90;999.90;;;;;;;;;;4979097;28;20335;-70
2022/07/30 12:53:58;;;;;;;1999.90;999.90;;;;;;;;;;4979554;28;20274;-71
2022/07/30 12:56:55;;;;;;;1999.90;999.90;;;;;;;;;;4985729;28;20207;-70
2022/07/30 12:59:40;;;;;;;1999.90;999.90;;;;;;;;;;4981256;28;20211;-70
2022/07/30 13:02:30;;;;;;;1999.90;999.90;;;;;;;;;;4978416;28;20274;-71
2022/07/30 13:05:15;;;;;;;1999.90;999.90;;;;;;;;;;4984736;28;20681;-71
2022/07/30 13:08:01;;;;;;;1999.90;999.90;;;;;;;;;;4981039;28;20224;-71
2022/07/30 13:10:56;;;;;;;1999.90;999.90;;;;;;;;;;4982434;28;20208;-71
2022/07/30 13:13:41;;;;;;;1999.90;999.90;;;;;;;;;;4980023;28;20251;-72
2022/07/30 13:16:30;;;;;;;1999.90;999.90;;;;;;;;;;4981889;28;20346;-71
2022/07/30 13:19:15;;;;;;;1999.90;999.90;;;;;;;;;;4981486;28;20415;-71
2022/07/30 13:22:00;;;;;;;1999.90;999.90;;;;;;;;;;4982129;28;20230;-71
2022/07/30 13:24:47;;;;;;;1999.90;999.90;;;;;;;;;;4984135;28;20693;-70
2022/07/30 13:27:31;;;;;;;1999.90;999.90;;;;;;;;;;4985895;28;20261;-71
2022/07/30 13:30:16;;;;;;;1999.90;999.90;;;;;;;;;;4985607;28;20701;-71
2022/07/30 13:33:02;;;;;;;1999.90;999.90;;;;;;;;;;4979848;28;20285;-71
2022/07/30 13:35:47;;;;;;;1999.90;999.90;;;;;;;;;;4980606;28;20824;-71
2022/07/30 13:38:32;;;;;;;1999.90;999.90;;;;;;;;;;4983561;28;20766;-71
2022/07/30 13:41:19;;;;;;;1999.90;999.90;;;;;;;;;;4983499;28;20207;-71
2022/07/30 13:44:04;;;;;;;1999.90;999.90;;;;;;;;;;4984210;28;20258;-70
2022/07/30 13:46:49;;;;;;;1999.90;999.90;;;;;;;;;;4983970;28;20211;-70
2022/07/30 13:49:35;;;;;;;1999.90;999.90;;;;;;;;;;4984504;28;20219;-71
2022/07/30 13:52:19;;;;;;;1999.90;999.90;;;;;;;;;;4981387;28;20708;-70
2022/07/30 13:55:05;;;;;;;1999.90;999.90;;;;;;;;;;4978051;28;20251;-71
2022/07/30 13:57:51;;;;;;;1999.90;999.90;;;;;;;;;;4982496;28;20207;-70
2022/07/30 14:00:37;;;;;;;1999.90;999.90;;;;;;;;;;4984497;28;20583;-70
2022/07/30 14:03:22;;;;;;;1999.90;999.90;;;;;;;;;;4981440;28;20227;-70
2022/07/30 14:06:07;;;;;;;1999.90;999.90;;;;;;;;;;4981967;28;20223;-70
2022/07/30 14:08:52;;;;;;;1999.90;999.90;;;;;;;;;;4983772;28;20213;-70
2022/07/30 14:11:37;;;;;;;1999.90;999.90;;;;;;;;;;4982010;28;21282;-70
2022/07/30 14:14:23;;;;;;;1999.90;999.90;;;;;;;;;;4978883;28;20207;-70
2022/07/30 14:17:08;;;;;;;1999.90;999.90;;;;;;;;;;4984109;28;20215;-71
2022/07/30 14:19:53;;;;;;;1999.90;999.90;;;;;;;;;;4982041;28;20294;-70
2022/07/30 14:22:38;;;;;;;1999.90;999.90;;;;;;;;;;4980352;28;20351;-71
2022/07/30 14:25:23;;;;;;;1999.90;999.90;;;;;;;;;;4981319;28;20218;-70
2022/07/30 14:28:08;;;;;;;1999.90;999.90;;;;;;;;;;4981860;28;20637;-71
2022/07/30 14:30:55;;;;;;;1999.90;999.90;;;;;;;;;;4981729;28;20438;-71
2022/07/30 14:33:40;;;;;;;1999.90;999.90;;;;;;;;;;4982565;28;20235;-70
2022/07/30 14:36:27;;;;;;;1999.90;999.90;;;;;;;;;;4979414;28;20290;-71
2022/07/30 14:39:12;;;;;;;1999.90;999.90;;;;;;;;;;4979801;28;20210;-71
2022/07/30 14:41:57;;;;;;;1999.90;999.90;;;;;;;;;;4982870;28;20993;-71
2022/07/30 14:44:42;;;;;;;1999.90;999.90;;;;;;;;;;4984347;28;20640;-71
2022/07/30 14:47:28;;;;;;;1999.90;999.90;;;;;;;;;;4979840;28;20200;-70
2022/07/30 14:50:13;;;;;;;1999.90;999.90;;;;;;;;;;4983185;28;20207;-71
2022/07/30 14:52:58;;;;;;;1999.90;999.90;;;;;;;;;;4977740;28;20231;-71
2022/07/30 14:55:43;;;;;;;1999.90;999.90;;;;;;;;;;4985847;28;20216;-71
2022/07/30 14:58:28;;;;;;;1999.90;999.90;;;;;;;;;;4976236;28;21136;-70
2022/07/30 15:01:13;;;;;;;1999.90;999.90;;;;;;;;;;4981011;28;20720;-71
2022/07/30 15:03:59;;;;;;;1999.90;999.90;;;;;;;;;;4981282;28;20215;-70
2022/07/30 15:06:45;;;;;;;1999.90;999.90;;;;;;;;;;4978356;28;20228;-70
2022/07/30 15:09:29;;;;;;;1999.90;999.90;;;;;;;;;;4982334;28;20212;-71
2022/07/30 15:12:15;;;;;;;1999.90;999.90;;;;;;;;;;4984501;28;20232;-70
2022/07/30 15:15:00;;;;;;;1999.90;999.90;;;;;;;;;;4986616;28;20675;-70
2022/07/30 15:17:45;;;;;;;1999.90;999.90;;;;;;;;;;4986603;28;20203;-70
2022/07/30 15:20:32;;;;;;;1999.90;999.90;;;;;;;;;;4983674;28;20208;-69
2022/07/30 15:23:17;;;;;;;1999.90;999.90;;;;;;;;;;4984629;28;20287;-71
2022/07/30 15:26:02;;;;;;;1999.90;999.90;;;;;;;;;;4988226;28;20400;-70
2022/07/30 15:28:47;;;;;;;1999.90;999.90;;;;;;;;;;4980399;28;20219;-71
2022/07/30 15:31:32;;;;;;;1999.90;999.90;;;;;;;;;;4979724;28;20338;-71
2022/07/30 15:34:17;;;;;;;1999.90;999.90;;;;;;;;;;4983298;28;20212;-71
2022/07/30 15:37:03;;;;;;;1999.90;999.90;;;;;;;;;;4977942;28;20329;-71
2022/07/30 15:39:48;;;;;;;1999.90;999.90;;;;;;;;;;4982098;28;20339;-71
2022/07/30 15:42:33;;;;;;;1999.90;999.90;;;;;;;;;;4983905;28;20366;-71
2022/07/30 15:45:18;;;;;;;1999.90;999.90;;;;;;;;;;4989674;28;20211;-71
2022/07/30 15:48:04;;;;;;;1999.90;999.90;;;;;;;;;;4982771;28;20212;-71
2022/07/30 15:50:49;;;;;;;1999.90;999.90;;;;;;;;;;4984209;28;20219;-70
2022/07/30 15:53:36;;;;;;;1999.90;999.90;;;;;;;;;;4983036;28;20263;-71
2022/07/30 15:56:21;;;;;;;1999.90;999.90;;;;;;;;;;4974328;28;20223;-70
2022/07/30 15:59:06;;;;;;;1999.90;999.90;;;;;;;;;;4976255;28;20212;-73